Time;durP1;ratioP1;P1;durP2;ratioP2;P2;SDS_P1;SDS_P2;PMS_P1;PMS_P2;Temp;Humidity;BMP_temperature;BMP_pressure;BME280_temperature;BME280_humidity;BME280_pressure;Samples;Min_cycle;Max_cycle;Signal;HPM_P1;HPM_P2
2023/08/09 00:01:09;;;;;;;6.30;3.25;;;13.40;99.90;;;;;;5074098;28;20047;-70
2023/08/09 00:03:35;;;;;;;6.10;2.90;;;13.40;99.90;;;;;;5074087;28;20117;-70
2023/08/09 00:06:01;;;;;;;5.38;3.13;;;13.40;99.90;;;;;;5074081;28;20123;-70
2023/08/09 00:08:26;;;;;;;4.68;2.95;;;13.40;99.90;;;;;;5073975;28;20048;-70
2023/08/09 00:10:52;;;;;;;4.95;2.92;;;13.40;99.90;;;;;;5073763;28;20036;-70
2023/08/09 00:13:17;;;;;;;7.03;3.22;;;13.40;99.90;;;;;;5074166;28;20050;-70
2023/08/09 00:15:43;;;;;;;7.45;3.50;;;13.40;99.90;;;;;;5073998;28;20397;-70
2023/08/09 00:18:08;;;;;;;7.63;3.40;;;13.40;99.90;;;;;;5073779;28;20485;-70
2023/08/09 00:20:36;;;;;;;7.15;3.67;;;13.40;99.90;;;;;;5074045;28;20036;-70
2023/08/09 00:23:02;;;;;;;8.60;3.75;;;13.40;99.90;;;;;;5073945;28;20071;-70
2023/08/09 00:25:27;;;;;;;5.00;3.50;;;13.30;99.90;;;;;;5073681;28;20528;-70
2023/08/09 00:27:53;;;;;;;8.32;3.70;;;13.30;99.90;;;;;;5073583;28;20048;-70
2023/08/09 00:30:19;;;;;;;7.32;3.90;;;13.30;99.90;;;;;;5073520;28;20119;-70
2023/08/09 00:32:44;;;;;;;6.68;3.40;;;13.20;99.90;;;;;;5073450;28;20051;-70
2023/08/09 00:35:10;;;;;;;7.97;3.97;;;13.20;99.90;;;;;;5073373;28;20064;-70
2023/08/09 00:37:38;;;;;;;6.25;3.75;;;13.20;99.90;;;;;;5073652;28;20086;-70
2023/08/09 00:40:07;;;;;;;8.32;4.18;;;13.20;99.90;;;;;;5073347;28;20036;-70
2023/08/09 00:42:34;;;;;;;8.25;4.97;;;13.20;99.90;;;;;;5073510;28;20045;-70
2023/08/09 00:44:59;;;;;;;11.20;4.78;;;13.10;99.90;;;;;;5073293;28;20032;-70
2023/08/09 00:47:26;;;;;;;10.95;5.10;;;13.10;99.90;;;;;;5073485;28;20089;-70
2023/08/09 00:49:51;;;;;;;19.10;5.28;;;13.10;99.90;;;;;;5073419;28;20126;-70
2023/08/09 00:52:19;;;;;;;39.08;5.97;;;13.10;99.90;;;;;;5074299;28;20066;-70
2023/08/09 00:54:48;;;;;;;7.40;4.50;;;13.10;99.90;;;;;;5073036;28;20033;-70
2023/08/09 00:57:14;;;;;;;10.90;4.82;;;13.10;99.90;;;;;;5072924;28;20037;-70
2023/08/09 00:59:40;;;;;;;23.25;5.15;;;13.20;99.90;;;;;;5072941;28;20123;-70
2023/08/09 01:02:08;;;;;;;9.15;4.50;;;13.20;99.90;;;;;;5072115;28;20163;-70
2023/08/09 01:04:34;;;;;;;43.38;5.13;;;13.20;99.90;;;;;;5072873;28;20115;-70
2023/08/09 01:07:19;;;;;;;24.67;4.80;;;13.30;99.90;;;;;;5072782;28;20041;-70
2023/08/09 01:10:02;;;;;;;64.65;6.15;;;13.30;99.90;;;;;;5072670;28;20044;-70
2023/08/09 01:12:31;;;;;;;;;;;13.30;99.90;;;;;;5073101;28;20556;-70
2023/08/09 01:15:02;;;;;;;57.97;5.47;;;13.20;99.90;;;;;;5072690;28;19916;-70
2023/08/09 01:17:29;;;;;;;12.52;4.68;;;13.20;99.90;;;;;;5072909;28;20045;-70
2023/08/09 01:19:57;;;;;;;22.30;6.07;;;13.30;99.90;;;;;;5072605;28;20070;-70
2023/08/09 01:22:31;;;;;;;6.63;4.55;;;13.30;99.90;;;;;;5072483;28;20048;-70
2023/08/09 01:25:08;;;;;;;5.72;4.63;;;13.30;99.90;;;;;;5072547;28;20044;-70
2023/08/09 01:27:35;;;;;;;9.70;4.95;;;13.30;99.90;;;;;;5072811;28;20047;-70
2023/08/09 01:30:04;;;;;;;18.90;5.20;;;13.20;99.90;;;;;;5072406;28;20397;-70
2023/08/09 01:32:31;;;;;;;13.57;4.30;;;13.20;99.90;;;;;;5072297;28;20085;-70
2023/08/09 01:34:58;;;;;;;13.93;4.47;;;13.30;99.90;;;;;;5072282;28;20471;-70
2023/08/09 01:37:23;;;;;;;8.15;4.30;;;13.30;99.90;;;;;;5072167;28;20405;-70
2023/08/09 01:39:51;;;;;;;8.25;4.80;;;13.30;99.90;;;;;;5072492;28;20044;-70
2023/08/09 01:42:17;;;;;;;8.27;4.63;;;13.30;99.90;;;;;;5072410;28;20123;-70
2023/08/09 01:44:43;;;;;;;8.93;4.40;;;13.30;99.90;;;;;;5073015;28;20116;-70
2023/08/09 01:47:09;;;;;;;8.48;4.70;;;13.20;99.90;;;;;;5072441;28;20033;-70
2023/08/09 01:49:35;;;;;;;11.38;4.80;;;13.30;99.90;;;;;;5072161;28;20080;-70
2023/08/09 01:52:00;;;;;;;16.02;5.18;;;13.20;99.90;;;;;;5071998;28;20094;-70
2023/08/09 01:54:27;;;;;;;15.13;4.78;;;13.10;99.90;;;;;;5072083;28;20036;-70
2023/08/09 01:56:53;;;;;;;25.40;5.57;;;13.10;99.90;;;;;;5072028;28;20076;-70
2023/08/09 01:59:18;;;;;;;26.50;5.32;;;13.10;99.90;;;;;;5072252;28;20079;-70
2023/08/09 02:01:44;;;;;;;26.17;6.05;;;13.10;99.90;;;;;;5072155;28;20486;-70
2023/08/09 02:04:10;;;;;;;9.40;4.65;;;13.00;99.90;;;;;;5072196;28;20413;-70
2023/08/09 02:06:38;;;;;;;12.82;5.38;;;13.00;99.90;;;;;;5071904;28;20047;-70
2023/08/09 02:09:06;;;;;;;15.05;5.45;;;12.90;99.90;;;;;;5071769;28;20044;-70
2023/08/09 02:11:31;;;;;;;8.68;5.05;;;12.90;99.90;;;;;;5072089;28;20094;-70
2023/08/09 02:13:57;;;;;;;8.30;5.20;;;12.90;99.90;;;;;;5071488;28;20493;-70
2023/08/09 02:16:23;;;;;;;7.63;4.78;;;12.90;99.90;;;;;;5071745;28;20136;-70
2023/08/09 02:18:48;;;;;;;7.80;5.30;;;12.90;99.90;;;;;;5071829;28;20079;-70
2023/08/09 02:21:14;;;;;;;9.35;5.57;;;12.80;99.90;;;;;;5071966;28;20068;-70
2023/08/09 02:23:40;;;;;;;17.80;5.95;;;12.80;99.90;;;;;;5071771;28;20497;-70
2023/08/09 02:26:07;;;;;;;10.68;5.53;;;12.80;99.90;;;;;;5071986;28;20051;-70
2023/08/09 02:28:33;;;;;;;10.82;6.32;;;12.80;99.90;;;;;;5071712;28;20056;-70
2023/08/09 02:30:58;;;;;;;6.70;5.78;;;12.90;99.90;;;;;;5071599;28;20040;-70
2023/08/09 02:33:24;;;;;;;9.05;5.28;;;12.80;99.90;;;;;;5071671;28;20130;-70
2023/08/09 02:35:57;;;;;;;8.30;6.15;;;12.80;99.90;;;;;;5071561;28;20055;-70
2023/08/09 02:38:24;;;;;;;11.80;6.28;;;12.70;99.90;;;;;;5071940;28;20111;-69
2023/08/09 02:40:51;;;;;;;7.60;5.60;;;12.70;99.90;;;;;;5071507;28;20497;-69
2023/08/09 02:43:25;;;;;;;6.68;5.38;;;12.60;99.90;;;;;;5071564;28;20043;-69
2023/08/09 02:45:53;;;;;;;11.02;6.60;;;12.60;99.90;;;;;;5071523;28;20048;-69
2023/08/09 02:48:19;;;;;;;7.97;4.93;;;12.50;99.90;;;;;;5071501;28;20044;-69
2023/08/09 02:50:45;;;;;;;7.60;5.75;;;12.50;99.90;;;;;;5071368;28;20408;-69
2023/08/09 02:53:11;;;;;;;9.93;6.80;;;12.40;99.90;;;;;;5071712;28;20054;-69
2023/08/09 02:55:37;;;;;;;8.88;6.32;;;12.40;99.90;;;;;;5071364;28;20043;-70
2023/08/09 02:58:04;;;;;;;10.40;7.43;;;12.40;99.90;;;;;;5071681;28;20397;-70
2023/08/09 03:00:33;;;;;;;16.13;7.45;;;12.30;99.90;;;;;;5071360;28;20090;-70
2023/08/09 03:03:00;;;;;;;7.97;6.13;;;12.30;99.90;;;;;;5071309;28;20041;-70
2023/08/09 03:05:27;;;;;;;7.03;6.13;;;12.20;99.90;;;;;;5071392;28;20123;-70
2023/08/09 03:07:53;;;;;;;7.57;6.45;;;12.10;99.90;;;;;;5071345;28;20076;-70
2023/08/09 03:10:19;;;;;;;8.70;6.20;;;12.20;99.90;;;;;;5071585;28;20072;-70
2023/08/09 03:12:45;;;;;;;8.40;6.45;;;12.10;99.90;;;;;;5071219;28;20043;-70
2023/08/09 03:15:11;;;;;;;8.68;6.55;;;12.10;99.90;;;;;;5071499;28;20048;-70
2023/08/09 03:17:37;;;;;;;8.55;6.38;;;12.00;99.90;;;;;;5071241;28;20041;-70
2023/08/09 03:20:22;;;;;;;8.57;6.13;;;12.10;99.90;;;;;;5071206;28;20488;-70
2023/08/09 03:22:48;;;;;;;7.30;6.47;;;12.10;99.90;;;;;;5071134;28;20417;-70
2023/08/09 03:25:14;;;;;;;9.32;5.95;;;12.10;99.90;;;;;;5071998;28;20490;-70
2023/08/09 03:27:40;;;;;;;9.35;6.90;;;12.10;99.90;;;;;;5075026;28;20041;-70
2023/08/09 03:30:08;;;;;;;8.32;7.05;;;12.00;99.90;;;;;;5074719;28;20032;-70
2023/08/09 03:32:34;;;;;;;7.65;6.25;;;12.00;99.90;;;;;;5074622;28;20055;-70
2023/08/09 03:35:00;;;;;;;12.93;6.03;;;11.90;99.90;;;;;;5074918;28;20040;-70
2023/08/09 03:37:26;;;;;;;12.10;6.93;;;11.90;99.90;;;;;;5074509;28;20512;-70
2023/08/09 03:39:51;;;;;;;13.95;7.38;;;11.90;99.90;;;;;;5057909;28;20036;-70
2023/08/09 03:42:17;;;;;;;11.77;7.50;;;11.90;99.90;;;;;;5074409;28;20128;-70
2023/08/09 03:44:42;;;;;;;8.38;6.50;;;11.90;99.90;;;;;;5074484;28;20047;-70
2023/08/09 03:47:08;;;;;;;10.40;6.85;;;11.90;99.90;;;;;;5074410;28;20048;-70
2023/08/09 03:49:34;;;;;;;9.60;7.63;;;11.90;99.90;;;;;;5074649;28;20090;-70
2023/08/09 03:52:00;;;;;;;7.63;6.43;;;12.00;99.90;;;;;;5074543;28;20558;-70
2023/08/09 03:54:25;;;;;;;7.47;6.18;;;12.00;99.90;;;;;;5074541;28;20485;-70
2023/08/09 03:56:51;;;;;;;7.10;6.40;;;12.00;99.90;;;;;;5074203;28;20489;-70
2023/08/09 03:59:17;;;;;;;8.10;6.93;;;11.90;99.90;;;;;;5074236;28;20514;-70
2023/08/09 04:01:42;;;;;;;14.73;6.45;;;11.90;99.90;;;;;;5074130;28;20040;-70
2023/08/09 04:04:08;;;;;;;6.15;5.55;;;11.90;99.90;;;;;;5074383;28;20040;-70
2023/08/09 04:06:33;;;;;;;9.48;7.43;;;11.80;99.90;;;;;;5074321;28;20501;-70
2023/08/09 04:08:59;;;;;;;8.40;7.07;;;11.80;99.90;;;;;;5074210;28;20504;-70
2023/08/09 04:11:25;;;;;;;7.90;6.53;;;11.70;99.90;;;;;;5073932;28;20072;-70
2023/08/09 04:13:50;;;;;;;8.07;6.82;;;11.70;99.90;;;;;;5074244;28;20127;-70
2023/08/09 04:16:16;;;;;;;6.35;5.68;;;11.70;99.90;;;;;;5073822;28;20040;-70
2023/08/09 04:18:41;;;;;;;7.00;6.30;;;11.70;99.90;;;;;;5073835;28;20041;-70
2023/08/09 04:21:07;;;;;;;8.52;5.75;;;11.60;99.90;;;;;;5073718;28;20048;-70
2023/08/09 04:23:33;;;;;;;6.50;5.75;;;11.60;99.90;;;;;;5073988;28;20044;-70
2023/08/09 04:26:00;;;;;;;7.47;6.13;;;11.70;99.90;;;;;;5073676;28;20040;-70
2023/08/09 04:28:26;;;;;;;8.52;5.97;;;11.60;99.90;;;;;;5073674;28;20040;-70
2023/08/09 04:30:52;;;;;;;7.32;6.25;;;11.60;99.90;;;;;;5073539;28;20041;-70
2023/08/09 04:33:18;;;;;;;6.22;5.63;;;11.60;99.90;;;;;;5073612;28;20055;-70
2023/08/09 04:35:44;;;;;;;6.32;5.55;;;11.60;99.90;;;;;;5073467;28;20037;-70
2023/08/09 04:38:10;;;;;;;8.45;5.72;;;11.60;99.90;;;;;;5073425;28;20397;-70
2023/08/09 04:40:36;;;;;;;6.03;5.40;;;11.60;99.90;;;;;;5073697;28;20044;-70
2023/08/09 04:43:02;;;;;;;8.77;5.78;;;11.70;99.90;;;;;;5073502;28;20048;-70
2023/08/09 04:45:28;;;;;;;6.03;5.35;;;11.60;99.90;;;;;;5073347;28;20127;-70
2023/08/09 04:47:54;;;;;;;6.28;5.70;;;11.70;99.90;;;;;;5073245;28;20090;-70
2023/08/09 04:50:20;;;;;;;6.35;5.50;;;11.70;99.90;;;;;;5073278;28;20049;-70
2023/08/09 04:52:46;;;;;;;7.43;5.85;;;11.70;99.90;;;;;;5073341;28;20044;-70
2023/08/09 04:55:11;;;;;;;8.63;5.78;;;11.70;99.90;;;;;;5073261;28;20037;-70
2023/08/09 04:57:38;;;;;;;6.78;6.07;;;11.70;99.90;;;;;;5073030;28;20119;-70
2023/08/09 05:00:08;;;;;;;7.72;5.68;;;11.80;99.90;;;;;;5073216;28;20047;-70
2023/08/09 05:02:36;;;;;;;9.00;6.85;;;11.80;99.90;;;;;;5072871;28;20041;-70
2023/08/09 05:05:04;;;;;;;7.50;6.63;;;11.80;99.90;;;;;;5072908;28;20053;-70
2023/08/09 05:07:29;;;;;;;7.38;6.68;;;11.80;99.90;;;;;;5072910;28;20051;-70
2023/08/09 05:09:55;;;;;;;9.68;7.40;;;11.90;99.90;;;;;;5072733;28;20036;-70
2023/08/09 05:12:21;;;;;;;8.88;6.10;;;11.90;99.90;;;;;;5073010;28;20127;-70
2023/08/09 05:14:46;;;;;;;10.20;7.00;;;11.90;99.90;;;;;;5072749;28;20408;-70
2023/08/09 05:17:12;;;;;;;8.95;7.75;;;12.00;99.90;;;;;;5072655;28;20036;-70
2023/08/09 05:19:37;;;;;;;7.47;6.43;;;12.00;99.90;;;;;;5072604;28;20481;-70
2023/08/09 05:22:03;;;;;;;9.68;6.25;;;12.10;99.90;;;;;;5072782;28;20037;-70
2023/08/09 05:24:29;;;;;;;8.07;7.15;;;12.20;99.90;;;;;;5072874;28;20394;-70
2023/08/09 05:26:54;;;;;;;7.57;6.68;;;12.20;99.90;;;;;;5072492;28;20049;-70
2023/08/09 05:29:20;;;;;;;8.38;6.90;;;12.20;99.90;;;;;;5072417;28;20067;-69
2023/08/09 05:31:45;;;;;;;7.43;6.57;;;12.20;99.90;;;;;;5072654;28;20044;-69
2023/08/09 05:34:11;;;;;;;8.68;7.22;;;12.30;99.90;;;;;;5072375;28;20411;-69
2023/08/09 05:36:37;;;;;;;9.60;7.03;;;12.40;99.90;;;;;;5072450;28;20040;-69
2023/08/09 05:39:02;;;;;;;9.27;6.35;;;12.40;99.90;;;;;;5073563;28;20424;-69
2023/08/09 05:41:28;;;;;;;7.30;6.60;;;12.50;99.90;;;;;;5072166;28;20076;-69
2023/08/09 05:43:53;;;;;;;10.52;6.57;;;12.60;99.90;;;;;;5072241;28;20041;-69
2023/08/09 05:46:19;;;;;;;8.63;6.22;;;12.60;99.90;;;;;;5072434;28;20089;-69
2023/08/09 05:48:45;;;;;;;9.15;7.03;;;12.70;99.90;;;;;;5071625;28;20040;-69
2023/08/09 05:51:11;;;;;;;7.63;6.38;;;12.80;99.90;;;;;;5072008;28;20048;-70
2023/08/09 05:53:37;;;;;;;11.00;6.72;;;12.80;99.90;;;;;;5072326;28;20051;-70
2023/08/09 05:56:02;;;;;;;11.95;6.25;;;12.80;99.90;;;;;;5071972;28;20072;-70
2023/08/09 05:58:28;;;;;;;8.25;6.40;;;12.90;99.90;;;;;;5072058;28;20040;-70
2023/08/09 06:00:54;;;;;;;6.80;5.25;;;12.90;99.90;;;;;;5071939;28;20039;-70
2023/08/09 06:03:20;;;;;;;6.35;5.45;;;13.00;99.90;;;;;;5071983;28;20032;-70
2023/08/09 06:05:46;;;;;;;6.15;5.18;;;13.10;99.90;;;;;;5071946;28;20078;-70
2023/08/09 06:08:13;;;;;;;6.93;5.50;;;13.10;99.90;;;;;;5072176;28;20084;-70
2023/08/09 06:10:38;;;;;;;5.78;5.10;;;13.20;99.90;;;;;;5071799;28;20032;-70
2023/08/09 06:13:05;;;;;;;5.95;4.55;;;13.20;99.90;;;;;;5071874;28;20044;-69
2023/08/09 06:15:30;;;;;;;5.45;4.90;;;13.20;99.90;;;;;;5071717;28;20059;-69
2023/08/09 06:17:56;;;;;;;11.18;5.88;;;13.30;99.90;;;;;;5071794;28;20032;-70
2023/08/09 06:20:22;;;;;;;6.03;4.85;;;13.40;99.90;;;;;;5054802;28;20040;-70
2023/08/09 06:22:48;;;;;;;7.68;5.93;;;13.40;99.90;;;;;;5071481;28;20167;-70
2023/08/09 06:25:17;;;;;;;5.78;5.00;;;13.50;99.90;;;;;;5073272;28;20033;-70
2023/08/09 06:27:42;;;;;;;6.97;4.50;;;13.50;99.90;;;;;;5071718;28;20040;-69
2023/08/09 06:30:08;;;;;;;6.78;4.70;;;13.60;99.90;;;;;;5071862;28;20051;-70
2023/08/09 06:32:34;;;;;;;6.13;4.00;;;13.70;99.90;;;;;;5071793;28;20040;-70
2023/08/09 06:34:59;;;;;;;4.13;3.53;;;13.70;99.90;;;;;;5073435;28;20041;-70
2023/08/09 06:37:25;;;;;;;6.10;3.35;;;13.90;99.90;;;;;;5054892;28;20044;-70
2023/08/09 06:39:51;;;;;;;4.95;2.88;;;14.00;99.90;;;;;;5071718;28;20040;-70
2023/08/09 06:42:16;;;;;;;6.30;2.75;;;14.00;99.90;;;;;;5071552;28;20086;-70
2023/08/09 06:44:42;;;;;;;4.30;2.75;;;14.10;99.90;;;;;;5071870;28;20161;-70
2023/08/09 06:47:08;;;;;;;3.70;2.75;;;14.20;99.90;;;;;;5071554;28;20531;-70
2023/08/09 06:49:34;;;;;;;4.72;2.67;;;14.30;99.90;;;;;;5071503;28;20047;-70
2023/08/09 06:52:00;;;;;;;6.55;2.85;;;14.40;99.90;;;;;;5071458;28;20055;-70
2023/08/09 06:54:27;;;;;;;4.15;2.30;;;14.50;99.90;;;;;;5071485;28;20052;-70
2023/08/09 06:56:53;;;;;;;4.40;2.53;;;14.50;99.90;;;;;;5071480;28;20051;-70
2023/08/09 06:59:18;;;;;;;6.28;2.50;;;14.60;99.90;;;;;;5071730;28;20493;-70
2023/08/09 07:01:47;;;;;;;3.53;2.10;;;14.70;99.90;;;;;;5074917;28;20037;-70
2023/08/09 07:04:17;;;;;;;3.92;2.13;;;14.70;99.90;;;;;;5075264;28;20036;-70
2023/08/09 07:06:42;;;;;;;4.65;2.00;;;14.80;99.90;;;;;;5075160;28;20076;-70
2023/08/09 07:09:11;;;;;;;3.50;1.85;;;14.90;99.90;;;;;;5075069;28;20084;-70
2023/08/09 07:11:36;;;;;;;6.85;2.33;;;15.00;99.90;;;;;;5075316;28;20051;-70
2023/08/09 07:14:02;;;;;;;5.22;1.70;;;15.10;99.90;;;;;;5075053;28;20416;-70
2023/08/09 07:16:28;;;;;;;4.88;1.77;;;15.10;99.90;;;;;;5075055;28;20043;-70
2023/08/09 07:18:53;;;;;;;3.38;1.80;;;15.20;99.90;;;;;;5074954;28;20489;-70
2023/08/09 07:21:20;;;;;;;3.22;1.40;;;15.40;99.90;;;;;;5075108;28;20051;-70
2023/08/09 07:23:46;;;;;;;4.05;1.52;;;15.40;99.90;;;;;;5075151;28;20044;-71
2023/08/09 07:26:11;;;;;;;2.33;1.40;;;15.50;99.90;;;;;;5074826;28;20516;-71
2023/08/09 07:28:37;;;;;;;2.97;1.17;;;15.70;99.90;;;;;;5074838;28;20044;-71
2023/08/09 07:31:03;;;;;;;3.22;1.35;;;15.70;99.90;;;;;;5074938;28;20044;-71
2023/08/09 07:33:28;;;;;;;3.42;1.30;;;15.90;99.90;;;;;;5075202;28;20045;-71
2023/08/09 07:35:54;;;;;;;5.40;1.10;;;16.00;99.90;;;;;;5074581;28;20158;-71
2023/08/09 07:38:20;;;;;;;3.92;1.67;;;16.10;99.90;;;;;;5074604;28;20051;-70
2023/08/09 07:40:46;;;;;;;3.28;1.40;;;16.20;99.90;;;;;;5074490;28;20037;-70
2023/08/09 07:43:11;;;;;;;3.35;1.70;;;16.20;99.90;;;;;;5074522;28;20043;-70
2023/08/09 07:45:37;;;;;;;4.15;1.30;;;16.30;99.90;;;;;;5074476;28;20045;-70
2023/08/09 07:48:04;;;;;;;6.03;1.67;;;16.50;99.90;;;;;;5074474;28;20040;-70
2023/08/09 07:50:30;;;;;;;3.45;1.13;;;16.60;99.90;;;;;;5074403;28;20040;-71
2023/08/09 07:52:56;;;;;;;4.22;1.30;;;16.60;99.90;;;;;;5074281;28;20055;-71
2023/08/09 07:55:24;;;;;;;2.90;0.95;;;16.70;99.90;;;;;;5074479;28;20052;-71
2023/08/09 07:57:50;;;;;;;5.18;1.92;;;16.70;99.90;;;;;;5074479;28;20048;-70
2023/08/09 08:00:17;;;;;;;2.97;1.50;;;16.90;99.90;;;;;;5074469;28;20028;-70
2023/08/09 08:02:44;;;;;;;3.00;1.60;;;16.90;99.90;;;;;;5074100;28;20070;-70
2023/08/09 08:05:11;;;;;;;3.22;1.52;;;17.10;99.90;;;;;;5074126;28;20052;-70
2023/08/09 08:07:38;;;;;;;4.85;1.80;;;17.20;99.90;;;;;;5074111;28;20058;-71
2023/08/09 08:10:08;;;;;;;3.88;1.20;;;17.30;99.90;;;;;;5074375;28;20052;-70
2023/08/09 08:12:33;;;;;;;3.58;1.10;;;17.30;99.90;;;;;;5073344;28;20417;-70
2023/08/09 08:15:00;;;;;;;3.33;1.02;;;17.50;99.90;;;;;;5074218;28;20041;-68
2023/08/09 08:17:26;;;;;;;2.47;1.45;;;17.50;99.90;;;;;;5073788;28;20455;-68
2023/08/09 08:19:52;;;;;;;4.47;1.23;;;17.70;99.90;;;;;;5073857;28;20066;-68
2023/08/09 08:22:18;;;;;;;3.40;1.15;;;17.80;99.90;;;;;;5073873;28;20044;-68
2023/08/09 08:24:44;;;;;;;4.05;0.90;;;17.90;99.90;;;;;;5073799;28;20118;-68
2023/08/09 08:27:09;;;;;;;3.58;1.20;;;18.10;99.90;;;;;;5073672;28;20048;-68
2023/08/09 08:29:35;;;;;;;4.00;1.05;;;18.30;99.90;;;;;;5073664;28;20047;-69
2023/08/09 08:32:01;;;;;;;4.03;1.42;;;18.30;99.90;;;;;;5073509;28;20464;-69
2023/08/09 08:34:31;;;;;;;3.17;1.10;;;18.40;99.90;;;;;;5073534;28;20538;-70
2023/08/09 08:37:00;;;;;;;4.47;1.30;;;18.50;99.90;;;;;;5073452;28;20501;-69
2023/08/09 08:39:28;;;;;;;2.60;0.80;;;18.70;99.90;;;;;;5073445;28;20508;-69
2023/08/09 08:41:56;;;;;;;2.60;0.88;;;18.90;99.90;;;;;;5073317;28;20060;-69
2023/08/09 08:44:24;;;;;;;5.88;1.15;;;19.10;99.90;;;;;;5073366;28;20078;-68
2023/08/09 08:46:51;;;;;;;2.83;1.10;;;19.00;99.90;;;;;;5073309;28;20056;-68
2023/08/09 08:49:20;;;;;;;3.95;0.98;;;18.90;99.90;;;;;;5073287;28;20537;-68
2023/08/09 08:51:49;;;;;;;2.17;0.93;;;18.90;99.90;;;;;;5074389;28;20037;-68
2023/08/09 08:54:16;;;;;;;2.65;1.08;;;18.90;99.90;;;;;;5056558;28;20047;-68
2023/08/09 08:56:42;;;;;;;3.15;1.02;;;18.90;99.90;;;;;;5056448;28;20072;-68
2023/08/09 08:59:08;;;;;;;3.47;1.02;;;19.20;99.90;;;;;;5073356;28;20041;-68
2023/08/09 09:01:34;;;;;;;2.88;0.70;;;19.20;99.90;;;;;;5073129;28;20540;-70
2023/08/09 09:04:01;;;;;;;5.65;0.80;;;19.20;99.90;;;;;;5073223;28;20143;-70
2023/08/09 09:06:27;;;;;;;3.50;0.75;;;19.40;99.90;;;;;;5072887;28;20090;-69
2023/08/09 09:08:56;;;;;;;2.17;0.73;;;19.60;99.90;;;;;;5072599;28;20045;-69
2023/08/09 09:11:22;;;;;;;3.75;0.70;;;19.60;99.90;;;;;;5072737;28;20045;-69
2023/08/09 09:13:50;;;;;;;4.22;0.80;;;19.60;99.90;;;;;;5073031;28;20080;-69
2023/08/09 09:16:20;;;;;;;2.80;0.50;;;19.60;99.90;;;;;;5072660;28;20040;-69
2023/08/09 09:18:48;;;;;;;4.57;0.68;;;19.80;99.90;;;;;;5072691;28;20093;-69
2023/08/09 09:21:16;;;;;;;3.58;0.77;;;19.80;99.90;;;;;;5072463;28;20488;-69
2023/08/09 09:23:42;;;;;;;2.45;0.65;;;20.00;99.60;;;;;;5071669;28;20119;-69
2023/08/09 09:26:16;;;;;;;4.40;0.90;;;20.20;99.90;;;;;;5072437;28;20127;-72
2023/08/09 09:28:47;;;;;;;3.20;0.85;;;20.40;99.20;;;;;;5055905;28;20131;-73
2023/08/09 09:31:14;;;;;;;4.90;0.60;;;20.20;98.50;;;;;;5072615;28;20472;-73
2023/08/09 09:33:44;;;;;;;1.77;0.50;;;20.10;98.30;;;;;;5072446;28;20044;-72
2023/08/09 09:36:10;;;;;;;2.97;0.95;;;19.90;97.80;;;;;;5072518;28;20127;-72
2023/08/09 09:38:36;;;;;;;2.53;0.80;;;19.70;97.70;;;;;;5072326;28;20086;-72
2023/08/09 09:41:03;;;;;;;2.40;0.80;;;19.70;98.10;;;;;;5072149;28;20044;-72
2023/08/09 09:43:32;;;;;;;2.63;0.65;;;19.90;97.40;;;;;;5072276;28;20036;-72
2023/08/09 09:45:58;;;;;;;2.83;0.60;;;20.10;95.80;;;;;;5072204;28;20076;-72
2023/08/09 09:48:25;;;;;;;6.28;0.90;;;20.50;95.60;;;;;;5072213;28;20036;-74
2023/08/09 09:50:51;;;;;;;2.20;0.63;;;20.70;94.30;;;;;;5072354;28;20044;-74
2023/08/09 09:53:18;;;;;;;1.83;0.60;;;20.90;92.70;;;;;;5055704;28;20409;-73
2023/08/09 09:55:44;;;;;;;2.17;0.80;;;21.00;92.80;;;;;;5072147;28;20047;-73
2023/08/09 09:58:12;;;;;;;3.85;0.70;;;21.00;90.70;;;;;;5072172;28;20037;-73
2023/08/09 10:00:41;;;;;;;3.90;0.85;;;21.20;88.20;;;;;;5072076;28;20501;-72
2023/08/09 10:03:09;;;;;;;2.13;0.60;;;21.30;86.60;;;;;;5072282;28;20048;-72
2023/08/09 10:05:43;;;;;;;2.15;0.68;;;21.30;81.30;;;;;;5072034;28;20081;-73
2023/08/09 10:08:10;;;;;;;3.45;0.93;;;21.20;79.30;;;;;;5072032;28;20040;-73
2023/08/09 10:10:37;;;;;;;5.03;0.68;;;21.10;82.50;;;;;;5071824;28;20111;-70
2023/08/09 10:13:05;;;;;;;1.92;0.65;;;21.10;82.00;;;;;;5071770;28;20513;-73
2023/08/09 10:15:35;;;;;;;2.35;0.60;;;21.30;80.90;;;;;;5071793;28;20044;-72
2023/08/09 10:18:35;;;;;;;5.65;0.90;;;21.60;79.60;;;;;;5072157;28;20040;-73
2023/08/09 10:21:02;;;;;;;2.08;0.60;;;21.70;77.50;;;;;;5062699;28;20047;-69
2023/08/09 10:23:29;;;;;;;2.88;0.60;;;21.70;76.30;;;;;;5071838;28;20036;-71
2023/08/09 10:25:55;;;;;;;0.93;0.47;;;21.80;74.80;;;;;;5072314;28;20080;-70
2023/08/09 10:28:47;;;;;;;5.03;0.80;;;22.00;75.10;;;;;;5071775;28;20123;-70
2023/08/09 10:31:13;;;;;;;1.38;0.52;;;22.20;74.90;;;;;;5071683;28;20044;-70
2023/08/09 10:34:01;;;;;;;2.58;0.60;;;22.10;73.30;;;;;;5071765;28;20464;-70
2023/08/09 10:36:34;;;;;;;3.25;0.60;;;21.90;71.80;;;;;;5075792;28;20041;-69
2023/08/09 10:39:18;;;;;;;3.35;0.70;;;21.90;74.00;;;;;;5075785;28;20094;-69
2023/08/09 10:42:08;;;;;;;2.80;0.60;;;21.80;73.30;;;;;;5075785;28;20043;-70
2023/08/09 10:44:42;;;;;;;1.63;0.50;;;21.90;69.40;;;;;;5076037;28;20090;-70
2023/08/09 10:47:13;;;;;;;2.13;0.63;;;22.20;71.80;;;;;;5075639;28;20046;-71
2023/08/09 10:49:48;;;;;;;1.75;0.60;;;22.60;72.10;;;;;;5059310;28;20044;-71
2023/08/09 10:52:18;;;;;;;3.47;0.70;;;22.90;68.70;;;;;;5075799;28;20051;-69
2023/08/09 10:54:45;;;;;;;3.65;0.55;;;23.10;68.10;;;;;;5075861;28;20123;-70
2023/08/09 10:57:12;;;;;;;1.85;0.50;;;23.40;66.80;;;;;;5075377;28;20464;-70
2023/08/09 10:59:39;;;;;;;4.22;0.60;;;23.50;67.20;;;;;;5075412;28;20033;-69
2023/08/09 11:02:05;;;;;;;6.10;0.60;;;23.70;66.40;;;;;;5075505;28;20044;-71
2023/08/09 11:04:31;;;;;;;2.00;0.60;;;23.80;65.90;;;;;;5075548;28;20048;-70
2023/08/09 11:06:57;;;;;;;3.38;0.40;;;23.60;65.20;;;;;;5075266;28;20432;-72
2023/08/09 11:09:23;;;;;;;1.98;0.68;;;23.30;64.90;;;;;;5075096;28;20043;-72
2023/08/09 11:11:50;;;;;;;6.70;0.90;;;23.20;64.80;;;;;;5075137;28;20501;-72
2023/08/09 11:14:21;;;;;;;1.63;0.60;;;23.00;66.20;;;;;;5058416;28;20044;-72
2023/08/09 11:16:48;;;;;;;2.03;0.60;;;22.80;65.60;;;;;;5075003;28;20061;-72
2023/08/09 11:19:15;;;;;;;2.63;0.50;;;22.50;64.80;;;;;;5075019;28;20056;-72
2023/08/09 11:21:45;;;;;;;2.42;0.80;;;22.30;65.60;;;;;;5075201;28;20147;-73
2023/08/09 11:24:12;;;;;;;3.05;0.90;;;22.10;66.80;;;;;;5074895;28;20090;-75
2023/08/09 11:26:50;;;;;;;4.72;0.70;;;22.10;66.90;;;;;;5074958;28;20404;-75
2023/08/09 11:29:17;;;;;;;2.28;0.77;;;22.20;65.80;;;;;;5058175;28;20041;-74
2023/08/09 11:31:45;;;;;;;6.85;0.98;;;22.50;65.90;;;;;;5074939;28;20501;-74
2023/08/09 11:34:12;;;;;;;2.00;0.70;;;22.60;66.80;;;;;;5074912;28;20036;-74
2023/08/09 11:36:40;;;;;;;2.65;0.80;;;22.50;66.50;;;;;;5074588;28;20574;-74
2023/08/09 11:39:07;;;;;;;2.15;0.73;;;22.50;66.70;;;;;;5074597;28;20386;-74
2023/08/09 11:41:55;;;;;;;2.55;0.73;;;22.60;66.40;;;;;;5074562;28;20029;-72
2023/08/09 11:44:32;;;;;;;3.30;0.88;;;22.90;68.70;;;;;;5074650;28;20119;-75
2023/08/09 11:47:00;;;;;;;4.28;0.80;;;23.20;65.50;;;;;;5073880;28;20378;-75
2023/08/09 11:49:27;;;;;;;3.83;0.88;;;23.10;65.80;;;;;;5057706;28;20519;-75
2023/08/09 11:51:53;;;;;;;3.15;0.90;;;23.10;66.40;;;;;;5074351;28;20055;-76
2023/08/09 11:54:19;;;;;;;3.35;0.73;;;23.10;65.70;;;;;;5074365;28;20047;-77
2023/08/09 11:56:45;;;;;;;4.93;0.90;;;23.00;65.60;;;;;;5074282;28;20032;-74
2023/08/09 11:59:11;;;;;;;1.38;0.70;;;23.20;66.60;;;;;;5074374;28;20106;-75
2023/08/09 12:01:45;;;;;;;2.95;0.68;;;23.50;66.00;;;;;;5074211;28;20119;-75
2023/08/09 12:04:14;;;;;;;2.33;0.70;;;23.50;66.80;;;;;;5057785;28;20490;-75
2023/08/09 12:06:48;;;;;;;3.97;0.90;;;23.60;67.20;;;;;;5074233;28;20119;-76
2023/08/09 12:09:35;;;;;;;3.95;1.00;;;23.60;65.50;;;;;;5073985;28;20044;-75
2023/08/09 12:12:04;;;;;;;2.53;0.80;;;23.40;65.60;;;;;;5074268;28;20047;-75
2023/08/09 12:14:31;;;;;;;4.95;0.90;;;23.30;67.60;;;;;;5074064;28;20562;-75
2023/08/09 12:16:57;;;;;;;4.18;1.00;;;23.20;66.30;;;;;;5057145;28;20068;-75
2023/08/09 12:19:22;;;;;;;2.72;0.80;;;23.10;67.30;;;;;;5073936;28;20087;-75
2023/08/09 12:21:48;;;;;;;5.03;0.98;;;23.30;67.80;;;;;;5073746;28;20036;-75
2023/08/09 12:24:14;;;;;;;4.57;0.82;;;23.60;66.90;;;;;;5073732;28;20037;-75
2023/08/09 12:26:40;;;;;;;5.45;1.48;;;24.00;68.00;;;;;;5073738;28;20048;-76
2023/08/09 12:29:07;;;;;;;5.07;0.80;;;24.20;64.80;;;;;;5073891;28;20048;-75
2023/08/09 12:31:33;;;;;;;3.30;1.13;;;24.30;64.60;;;;;;5073891;28;20092;-76
2023/08/09 12:33:58;;;;;;;5.63;0.90;;;24.40;64.70;;;;;;5073617;28;20046;-72
2023/08/09 12:36:24;;;;;;;2.83;0.80;;;24.30;65.10;;;;;;5073561;28;20120;-72
2023/08/09 12:38:50;;;;;;;2.92;0.93;;;24.00;65.80;;;;;;5073581;28;20036;-72
2023/08/09 12:41:15;;;;;;;4.07;1.08;;;23.80;65.90;;;;;;5073377;28;20043;-69
2023/08/09 12:43:41;;;;;;;6.05;1.23;;;23.80;66.90;;;;;;5073435;28;20044;-69
2023/08/09 12:46:06;;;;;;;3.78;0.70;;;23.80;68.60;;;;;;5073439;28;20063;-69